sensor_id;sensor_type;location;lat;lon;timestamp;P1;durP1;ratioP1;P2;durP2;ratioP2
33954;SDS011;20233;50.804;7.126;2023-12-07T00:00:31;31.48;;;17.33;;
33954;SDS011;20233;50.804;7.126;2023-12-07T00:02:57;26.15;;;15.90;;
33954;SDS011;20233;50.804;7.126;2023-12-07T00:05:24;23.75;;;14.95;;
33954;SDS011;20233;50.804;7.126;2023-12-07T00:07:50;26.50;;;16.63;;
33954;SDS011;20233;50.804;7.126;2023-12-07T00:10:15;30.33;;;16.75;;
33954;SDS011;20233;50.804;7.126;2023-12-07T00:12:41;31.70;;;18.10;;
33954;SDS011;20233;50.804;7.126;2023-12-07T00:15:06;30.38;;;16.90;;
33954;SDS011;20233;50.804;7.126;2023-12-07T00:17:32;27.30;;;16.77;;
33954;SDS011;20233;50.804;7.126;2023-12-07T00:19:58;31.58;;;17.90;;
33954;SDS011;20233;50.804;7.126;2023-12-07T00:22:24;27.75;;;17.23;;
33954;SDS011;20233;50.804;7.126;2023-12-07T00:24:51;32.05;;;18.42;;
33954;SDS011;20233;50.804;7.126;2023-12-07T00:27:17;28.60;;;17.52;;
33954;SDS011;20233;50.804;7.126;2023-12-07T00:29:43;32.25;;;17.27;;
33954;SDS011;20233;50.804;7.126;2023-12-07T00:32:08;30.55;;;16.33;;
33954;SDS011;20233;50.804;7.126;2023-12-07T00:34:34;30.75;;;16.27;;
33954;SDS011;20233;50.804;7.126;2023-12-07T00:37:00;30.17;;;17.33;;
33954;SDS011;20233;50.804;7.126;2023-12-07T00:39:26;32.88;;;18.80;;
33954;SDS011;20233;50.804;7.126;2023-12-07T00:41:51;37.72;;;19.02;;
33954;SDS011;20233;50.804;7.126;2023-12-07T00:44:17;31.65;;;18.10;;
33954;SDS011;20233;50.804;7.126;2023-12-07T00:46:43;31.73;;;18.30;;
33954;SDS011;20233;50.804;7.126;2023-12-07T00:49:09;32.35;;;18.42;;
33954;SDS011;20233;50.804;7.126;2023-12-07T00:51:35;29.45;;;16.85;;
33954;SDS011;20233;50.804;7.126;2023-12-07T00:54:01;32.05;;;18.60;;
33954;SDS011;20233;50.804;7.126;2023-12-07T00:56:26;35.20;;;18.00;;
33954;SDS011;20233;50.804;7.126;2023-12-07T00:58:52;28.58;;;17.23;;
33954;SDS011;20233;50.804;7.126;2023-12-07T01:01:17;32.92;;;17.77;;
33954;SDS011;20233;50.804;7.126;2023-12-07T01:03:43;33.90;;;18.00;;
33954;SDS011;20233;50.804;7.126;2023-12-07T01:06:08;36.72;;;18.40;;
33954;SDS011;20233;50.804;7.126;2023-12-07T01:08:36;32.40;;;18.90;;
33954;SDS011;20233;50.804;7.126;2023-12-07T01:11:03;40.22;;;18.95;;
33954;SDS011;20233;50.804;7.126;2023-12-07T01:13:29;33.17;;;18.20;;
33954;SDS011;20233;50.804;7.126;2023-12-07T01:15:55;30.50;;;17.27;;
33954;SDS011;20233;50.804;7.126;2023-12-07T01:18:21;32.03;;;17.27;;
33954;SDS011;20233;50.804;7.126;2023-12-07T01:20:46;32.35;;;18.10;;
33954;SDS011;20233;50.804;7.126;2023-12-07T01:23:13;32.85;;;17.90;;
33954;SDS011;20233;50.804;7.126;2023-12-07T01:25:39;31.70;;;17.13;;
33954;SDS011;20233;50.804;7.126;2023-12-07T01:28:05;35.20;;;18.17;;
33954;SDS011;20233;50.804;7.126;2023-12-07T01:30:30;37.08;;;18.08;;
33954;SDS011;20233;50.804;7.126;2023-12-07T01:32:56;31.13;;;17.33;;
33954;SDS011;20233;50.804;7.126;2023-12-07T01:35:22;35.47;;;18.35;;
33954;SDS011;20233;50.804;7.126;2023-12-07T01:37:47;31.98;;;17.70;;
33954;SDS011;20233;50.804;7.126;2023-12-07T01:40:13;34.60;;;18.08;;
33954;SDS011;20233;50.804;7.126;2023-12-07T01:42:40;36.70;;;17.25;;
33954;SDS011;20233;50.804;7.126;2023-12-07T01:45:13;37.00;;;18.85;;
33954;SDS011;20233;50.804;7.126;2023-12-07T01:47:39;32.55;;;17.10;;
33954;SDS011;20233;50.804;7.126;2023-12-07T01:50:06;34.95;;;17.80;;
33954;SDS011;20233;50.804;7.126;2023-12-07T01:52:34;33.58;;;17.70;;
33954;SDS011;20233;50.804;7.126;2023-12-07T01:55:08;30.20;;;17.15;;
33954;SDS011;20233;50.804;7.126;2023-12-07T01:57:35;33.55;;;18.77;;
33954;SDS011;20233;50.804;7.126;2023-12-07T02:00:01;31.60;;;17.60;;
33954;SDS011;20233;50.804;7.126;2023-12-07T02:02:28;31.38;;;16.73;;
33954;SDS011;20233;50.804;7.126;2023-12-07T02:04:55;26.25;;;15.75;;
33954;SDS011;20233;50.804;7.126;2023-12-07T02:07:21;32.55;;;18.27;;
33954;SDS011;20233;50.804;7.126;2023-12-07T02:09:48;26.65;;;15.43;;
33954;SDS011;20233;50.804;7.126;2023-12-07T02:12:14;28.80;;;15.93;;
33954;SDS011;20233;50.804;7.126;2023-12-07T02:14:40;28.63;;;15.85;;
33954;SDS011;20233;50.804;7.126;2023-12-07T02:17:24;32.90;;;16.77;;
33954;SDS011;20233;50.804;7.126;2023-12-07T02:22:54;30.00;;;16.73;;
33954;SDS011;20233;50.804;7.126;2023-12-07T02:25:26;31.45;;;15.25;;
33954;SDS011;20233;50.804;7.126;2023-12-07T02:27:59;26.23;;;15.10;;
33954;SDS011;20233;50.804;7.126;2023-12-07T02:30:25;30.55;;;15.48;;
33954;SDS011;20233;50.804;7.126;2023-12-07T02:32:50;28.00;;;15.13;;
33954;SDS011;20233;50.804;7.126;2023-12-07T02:35:15;30.15;;;16.17;;
33954;SDS011;20233;50.804;7.126;2023-12-07T02:37:45;28.10;;;15.43;;
33954;SDS011;20233;50.804;7.126;2023-12-07T02:40:15;31.50;;;15.48;;
33954;SDS011;20233;50.804;7.126;2023-12-07T02:42:42;29.02;;;14.98;;
33954;SDS011;20233;50.804;7.126;2023-12-07T02:45:09;32.00;;;15.77;;
33954;SDS011;20233;50.804;7.126;2023-12-07T02:47:35;30.17;;;16.08;;
33954;SDS011;20233;50.804;7.126;2023-12-07T02:50:02;26.55;;;14.52;;
33954;SDS011;20233;50.804;7.126;2023-12-07T02:52:29;22.55;;;14.30;;
33954;SDS011;20233;50.804;7.126;2023-12-07T02:54:55;24.83;;;15.43;;
33954;SDS011;20233;50.804;7.126;2023-12-07T02:57:20;25.55;;;14.18;;
33954;SDS011;20233;50.804;7.126;2023-12-07T02:59:46;24.73;;;14.75;;
33954;SDS011;20233;50.804;7.126;2023-12-07T03:02:11;26.25;;;14.50;;
33954;SDS011;20233;50.804;7.126;2023-12-07T03:04:37;26.48;;;15.05;;
33954;SDS011;20233;50.804;7.126;2023-12-07T03:07:02;24.48;;;14.88;;
33954;SDS011;20233;50.804;7.126;2023-12-07T03:09:28;24.65;;;14.38;;
33954;SDS011;20233;50.804;7.126;2023-12-07T03:11:54;26.08;;;15.50;;
33954;SDS011;20233;50.804;7.126;2023-12-07T03:14:19;27.60;;;15.05;;
33954;SDS011;20233;50.804;7.126;2023-12-07T03:16:45;33.08;;;14.75;;
33954;SDS011;20233;50.804;7.126;2023-12-07T03:19:11;27.77;;;13.73;;
33954;SDS011;20233;50.804;7.126;2023-12-07T03:21:40;24.05;;;13.80;;
33954;SDS011;20233;50.804;7.126;2023-12-07T03:24:06;25.77;;;14.20;;
33954;SDS011;20233;50.804;7.126;2023-12-07T03:26:35;26.08;;;15.10;;
33954;SDS011;20233;50.804;7.126;2023-12-07T03:29:02;26.35;;;15.25;;
33954;SDS011;20233;50.804;7.126;2023-12-07T03:31:27;25.92;;;14.90;;
33954;SDS011;20233;50.804;7.126;2023-12-07T03:33:54;27.15;;;15.57;;
33954;SDS011;20233;50.804;7.126;2023-12-07T03:36:21;23.52;;;13.93;;
33954;SDS011;20233;50.804;7.126;2023-12-07T03:38:48;23.25;;;13.80;;
33954;SDS011;20233;50.804;7.126;2023-12-07T03:41:14;23.88;;;12.95;;
33954;SDS011;20233;50.804;7.126;2023-12-07T03:43:39;24.00;;;12.70;;
33954;SDS011;20233;50.804;7.126;2023-12-07T03:46:05;28.48;;;13.68;;
33954;SDS011;20233;50.804;7.126;2023-12-07T03:48:32;21.00;;;12.73;;
33954;SDS011;20233;50.804;7.126;2023-12-07T03:50:59;25.08;;;13.77;;
33954;SDS011;20233;50.804;7.126;2023-12-07T03:53:24;23.58;;;14.63;;
33954;SDS011;20233;50.804;7.126;2023-12-07T03:55:52;28.27;;;14.85;;
33954;SDS011;20233;50.804;7.126;2023-12-07T03:58:17;24.30;;;14.75;;
33954;SDS011;20233;50.804;7.126;2023-12-07T04:00:43;29.63;;;14.10;;
33954;SDS011;20233;50.804;7.126;2023-12-07T04:03:09;25.05;;;14.65;;
33954;SDS011;20233;50.804;7.126;2023-12-07T04:05:35;26.13;;;13.77;;
33954;SDS011;20233;50.804;7.126;2023-12-07T04:08:00;21.13;;;13.13;;
33954;SDS011;20233;50.804;7.126;2023-12-07T04:10:26;26.30;;;14.70;;
33954;SDS011;20233;50.804;7.126;2023-12-07T04:12:51;27.33;;;15.05;;
33954;SDS011;20233;50.804;7.126;2023-12-07T04:15:20;25.13;;;13.73;;
33954;SDS011;20233;50.804;7.126;2023-12-07T04:17:45;26.80;;;13.45;;
33954;SDS011;20233;50.804;7.126;2023-12-07T04:20:11;20.52;;;12.63;;
33954;SDS011;20233;50.804;7.126;2023-12-07T04:22:38;19.65;;;12.38;;
33954;SDS011;20233;50.804;7.126;2023-12-07T04:25:04;19.48;;;12.52;;
33954;SDS011;20233;50.804;7.126;2023-12-07T04:27:31;22.30;;;12.18;;
33954;SDS011;20233;50.804;7.126;2023-12-07T04:29:57;22.30;;;13.63;;
33954;SDS011;20233;50.804;7.126;2023-12-07T04:32:23;23.95;;;13.65;;
33954;SDS011;20233;50.804;7.126;2023-12-07T04:34:48;22.48;;;12.73;;
33954;SDS011;20233;50.804;7.126;2023-12-07T04:37:14;22.65;;;13.20;;
33954;SDS011;20233;50.804;7.126;2023-12-07T04:39:40;21.63;;;12.60;;
33954;SDS011;20233;50.804;7.126;2023-12-07T04:42:05;21.70;;;12.27;;
33954;SDS011;20233;50.804;7.126;2023-12-07T04:44:31;19.52;;;11.27;;
33954;SDS011;20233;50.804;7.126;2023-12-07T04:46:56;22.27;;;12.02;;
33954;SDS011;20233;50.804;7.126;2023-12-07T04:49:22;19.08;;;11.07;;
33954;SDS011;20233;50.804;7.126;2023-12-07T04:51:47;18.88;;;10.88;;
33954;SDS011;20233;50.804;7.126;2023-12-07T04:54:13;19.02;;;11.18;;
33954;SDS011;20233;50.804;7.126;2023-12-07T04:56:42;21.95;;;11.68;;
33954;SDS011;20233;50.804;7.126;2023-12-07T04:59:08;18.33;;;11.77;;
33954;SDS011;20233;50.804;7.126;2023-12-07T05:01:37;21.48;;;11.65;;
33954;SDS011;20233;50.804;7.126;2023-12-07T05:04:03;22.50;;;12.30;;
33954;SDS011;20233;50.804;7.126;2023-12-07T05:06:31;18.00;;;11.13;;
33954;SDS011;20233;50.804;7.126;2023-12-07T05:08:57;21.30;;;11.60;;
33954;SDS011;20233;50.804;7.126;2023-12-07T05:11:23;19.67;;;11.27;;
33954;SDS011;20233;50.804;7.126;2023-12-07T05:13:48;22.27;;;11.63;;
33954;SDS011;20233;50.804;7.126;2023-12-07T05:16:14;18.45;;;11.27;;
33954;SDS011;20233;50.804;7.126;2023-12-07T05:18:40;22.42;;;12.30;;
33954;SDS011;20233;50.804;7.126;2023-12-07T05:21:06;21.77;;;11.60;;
33954;SDS011;20233;50.804;7.126;2023-12-07T05:23:32;21.05;;;12.68;;
33954;SDS011;20233;50.804;7.126;2023-12-07T05:25:59;22.52;;;13.32;;
33954;SDS011;20233;50.804;7.126;2023-12-07T05:28:25;21.20;;;12.52;;
33954;SDS011;20233;50.804;7.126;2023-12-07T05:30:51;20.98;;;12.32;;
33954;SDS011;20233;50.804;7.126;2023-12-07T05:33:17;21.67;;;12.60;;
33954;SDS011;20233;50.804;7.126;2023-12-07T05:35:44;22.30;;;12.15;;
33954;SDS011;20233;50.804;7.126;2023-12-07T05:38:10;19.30;;;12.82;;
33954;SDS011;20233;50.804;7.126;2023-12-07T05:40:35;23.30;;;12.45;;
33954;SDS011;20233;50.804;7.126;2023-12-07T05:43:01;22.05;;;11.88;;
33954;SDS011;20233;50.804;7.126;2023-12-07T05:45:27;21.73;;;12.50;;
33954;SDS011;20233;50.804;7.126;2023-12-07T05:47:52;20.05;;;11.75;;
33954;SDS011;20233;50.804;7.126;2023-12-07T05:50:18;20.52;;;12.52;;
33954;SDS011;20233;50.804;7.126;2023-12-07T05:52:43;19.83;;;12.15;;
33954;SDS011;20233;50.804;7.126;2023-12-07T05:55:09;21.30;;;12.55;;
33954;SDS011;20233;50.804;7.126;2023-12-07T05:57:34;20.40;;;12.00;;
33954;SDS011;20233;50.804;7.126;2023-12-07T06:00:00;21.48;;;11.57;;
33954;SDS011;20233;50.804;7.126;2023-12-07T06:02:26;20.00;;;11.68;;
33954;SDS011;20233;50.804;7.126;2023-12-07T06:04:51;21.08;;;11.98;;
33954;SDS011;20233;50.804;7.126;2023-12-07T06:07:17;17.40;;;11.07;;
33954;SDS011;20233;50.804;7.126;2023-12-07T06:09:42;19.88;;;11.07;;
33954;SDS011;20233;50.804;7.126;2023-12-07T06:12:08;24.17;;;11.23;;
33954;SDS011;20233;50.804;7.126;2023-12-07T06:14:33;20.45;;;11.93;;
33954;SDS011;20233;50.804;7.126;2023-12-07T06:16:59;20.05;;;12.10;;
33954;SDS011;20233;50.804;7.126;2023-12-07T06:19:24;22.17;;;12.40;;
33954;SDS011;20233;50.804;7.126;2023-12-07T06:21:50;24.52;;;12.93;;
33954;SDS011;20233;50.804;7.126;2023-12-07T06:24:15;23.75;;;13.23;;
33954;SDS011;20233;50.804;7.126;2023-12-07T06:26:41;21.80;;;12.88;;
33954;SDS011;20233;50.804;7.126;2023-12-07T06:29:07;23.95;;;13.05;;
33954;SDS011;20233;50.804;7.126;2023-12-07T06:31:32;26.95;;;12.82;;
33954;SDS011;20233;50.804;7.126;2023-12-07T06:33:58;22.92;;;12.30;;
33954;SDS011;20233;50.804;7.126;2023-12-07T06:36:25;22.90;;;13.43;;
33954;SDS011;20233;50.804;7.126;2023-12-07T06:38:51;27.50;;;14.32;;
33954;SDS011;20233;50.804;7.126;2023-12-07T06:41:17;24.45;;;12.68;;
33954;SDS011;20233;50.804;7.126;2023-12-07T06:43:43;21.35;;;12.07;;
33954;SDS011;20233;50.804;7.126;2023-12-07T06:46:12;20.67;;;13.00;;
33954;SDS011;20233;50.804;7.126;2023-12-07T06:48:39;21.55;;;11.57;;
33954;SDS011;20233;50.804;7.126;2023-12-07T06:51:04;25.63;;;13.23;;
33954;SDS011;20233;50.804;7.126;2023-12-07T06:53:30;24.58;;;12.65;;
33954;SDS011;20233;50.804;7.126;2023-12-07T06:55:56;25.35;;;13.25;;
33954;SDS011;20233;50.804;7.126;2023-12-07T06:58:22;23.60;;;12.27;;
33954;SDS011;20233;50.804;7.126;2023-12-07T07:00:48;23.98;;;13.23;;
33954;SDS011;20233;50.804;7.126;2023-12-07T07:03:14;27.17;;;13.20;;
33954;SDS011;20233;50.804;7.126;2023-12-07T07:05:40;24.27;;;13.40;;
33954;SDS011;20233;50.804;7.126;2023-12-07T07:08:06;25.42;;;12.68;;
33954;SDS011;20233;50.804;7.126;2023-12-07T07:10:33;25.23;;;12.38;;
33954;SDS011;20233;50.804;7.126;2023-12-07T07:13:02;29.77;;;13.23;;
33954;SDS011;20233;50.804;7.126;2023-12-07T07:15:29;27.15;;;13.27;;
33954;SDS011;20233;50.804;7.126;2023-12-07T07:17:55;24.73;;;13.30;;
33954;SDS011;20233;50.804;7.126;2023-12-07T07:20:21;26.73;;;13.13;;
33954;SDS011;20233;50.804;7.126;2023-12-07T07:22:47;23.73;;;12.93;;
33954;SDS011;20233;50.804;7.126;2023-12-07T07:25:13;21.30;;;11.93;;
33954;SDS011;20233;50.804;7.126;2023-12-07T07:27:40;26.65;;;12.98;;
33954;SDS011;20233;50.804;7.126;2023-12-07T07:30:06;20.33;;;11.98;;
33954;SDS011;20233;50.804;7.126;2023-12-07T07:32:33;23.02;;;12.02;;
33954;SDS011;20233;50.804;7.126;2023-12-07T07:34:58;23.00;;;11.25;;
33954;SDS011;20233;50.804;7.126;2023-12-07T07:37:24;26.55;;;13.32;;
33954;SDS011;20233;50.804;7.126;2023-12-07T07:39:50;27.60;;;13.35;;
33954;SDS011;20233;50.804;7.126;2023-12-07T07:42:15;25.65;;;12.70;;
33954;SDS011;20233;50.804;7.126;2023-12-07T07:44:41;24.55;;;13.30;;
33954;SDS011;20233;50.804;7.126;2023-12-07T07:47:07;27.10;;;13.25;;
33954;SDS011;20233;50.804;7.126;2023-12-07T07:49:33;34.60;;;14.52;;
33954;SDS011;20233;50.804;7.126;2023-12-07T07:51:58;25.58;;;13.45;;
33954;SDS011;20233;50.804;7.126;2023-12-07T07:54:24;30.30;;;14.60;;
33954;SDS011;20233;50.804;7.126;2023-12-07T07:56:50;30.35;;;15.02;;
33954;SDS011;20233;50.804;7.126;2023-12-07T07:59:16;30.45;;;14.45;;
33954;SDS011;20233;50.804;7.126;2023-12-07T08:01:41;27.40;;;13.55;;
33954;SDS011;20233;50.804;7.126;2023-12-07T08:04:07;34.17;;;14.82;;
33954;SDS011;20233;50.804;7.126;2023-12-07T08:06:32;31.20;;;15.07;;
33954;SDS011;20233;50.804;7.126;2023-12-07T08:08:59;31.40;;;15.32;;
33954;SDS011;20233;50.804;7.126;2023-12-07T08:11:25;34.78;;;16.45;;
33954;SDS011;20233;50.804;7.126;2023-12-07T08:13:51;33.00;;;15.10;;
33954;SDS011;20233;50.804;7.126;2023-12-07T08:16:17;30.13;;;15.15;;
33954;SDS011;20233;50.804;7.126;2023-12-07T08:18:43;34.90;;;16.55;;
33954;SDS011;20233;50.804;7.126;2023-12-07T08:21:08;35.15;;;16.02;;
33954;SDS011;20233;50.804;7.126;2023-12-07T08:23:43;34.58;;;15.48;;
33954;SDS011;20233;50.804;7.126;2023-12-07T08:26:08;35.58;;;15.70;;
33954;SDS011;20233;50.804;7.126;2023-12-07T08:28:34;31.25;;;14.80;;
33954;SDS011;20233;50.804;7.126;2023-12-07T08:31:01;31.75;;;15.70;;
33954;SDS011;20233;50.804;7.126;2023-12-07T08:33:27;34.80;;;15.38;;
33954;SDS011;20233;50.804;7.126;2023-12-07T08:35:53;33.88;;;16.02;;
33954;SDS011;20233;50.804;7.126;2023-12-07T08:38:20;33.42;;;16.67;;
33954;SDS011;20233;50.804;7.126;2023-12-07T08:40:47;35.45;;;16.73;;
33954;SDS011;20233;50.804;7.126;2023-12-07T08:43:12;35.80;;;15.98;;
33954;SDS011;20233;50.804;7.126;2023-12-07T08:45:38;35.60;;;16.15;;
33954;SDS011;20233;50.804;7.126;2023-12-07T08:48:04;36.70;;;15.65;;
33954;SDS011;20233;50.804;7.126;2023-12-07T08:50:30;35.13;;;16.63;;
33954;SDS011;20233;50.804;7.126;2023-12-07T08:52:55;36.35;;;17.08;;
33954;SDS011;20233;50.804;7.126;2023-12-07T08:55:21;31.88;;;15.95;;
33954;SDS011;20233;50.804;7.126;2023-12-07T08:57:47;36.83;;;16.95;;
33954;SDS011;20233;50.804;7.126;2023-12-07T09:00:12;37.70;;;17.25;;
33954;SDS011;20233;50.804;7.126;2023-12-07T09:02:38;39.15;;;18.23;;
33954;SDS011;20233;50.804;7.126;2023-12-07T09:05:04;36.83;;;17.77;;
33954;SDS011;20233;50.804;7.126;2023-12-07T09:07:29;39.10;;;18.20;;
33954;SDS011;20233;50.804;7.126;2023-12-07T09:09:55;34.13;;;15.93;;
33954;SDS011;20233;50.804;7.126;2023-12-07T09:12:20;34.13;;;16.55;;
33954;SDS011;20233;50.804;7.126;2023-12-07T09:14:46;29.92;;;15.00;;
33954;SDS011;20233;50.804;7.126;2023-12-07T09:17:11;32.45;;;16.33;;
33954;SDS011;20233;50.804;7.126;2023-12-07T09:19:37;32.97;;;15.80;;
33954;SDS011;20233;50.804;7.126;2023-12-07T09:22:03;29.60;;;14.90;;
33954;SDS011;20233;50.804;7.126;2023-12-07T09:24:28;29.05;;;14.65;;
33954;SDS011;20233;50.804;7.126;2023-12-07T09:26:54;28.67;;;14.05;;
33954;SDS011;20233;50.804;7.126;2023-12-07T09:29:20;24.77;;;13.27;;
33954;SDS011;20233;50.804;7.126;2023-12-07T09:31:46;28.38;;;14.57;;
33954;SDS011;20233;50.804;7.126;2023-12-07T09:34:11;25.83;;;13.48;;
33954;SDS011;20233;50.804;7.126;2023-12-07T09:36:44;29.00;;;13.65;;
33954;SDS011;20233;50.804;7.126;2023-12-07T09:39:10;24.40;;;13.00;;
33954;SDS011;20233;50.804;7.126;2023-12-07T09:41:36;26.55;;;13.27;;
33954;SDS011;20233;50.804;7.126;2023-12-07T09:44:03;26.52;;;13.50;;
33954;SDS011;20233;50.804;7.126;2023-12-07T09:46:28;23.20;;;12.45;;
33954;SDS011;20233;50.804;7.126;2023-12-07T09:48:56;27.13;;;14.60;;
33954;SDS011;20233;50.804;7.126;2023-12-07T09:51:22;23.60;;;12.48;;
33954;SDS011;20233;50.804;7.126;2023-12-07T09:53:49;21.98;;;11.82;;
33954;SDS011;20233;50.804;7.126;2023-12-07T09:56:17;24.92;;;12.68;;
33954;SDS011;20233;50.804;7.126;2023-12-07T09:58:43;22.95;;;12.77;;
33954;SDS011;20233;50.804;7.126;2023-12-07T10:01:08;22.15;;;10.98;;
33954;SDS011;20233;50.804;7.126;2023-12-07T10:03:35;19.48;;;11.30;;
33954;SDS011;20233;50.804;7.126;2023-12-07T10:06:01;20.13;;;11.88;;
33954;SDS011;20233;50.804;7.126;2023-12-07T10:08:31;23.30;;;12.23;;
33954;SDS011;20233;50.804;7.126;2023-12-07T10:11:16;25.15;;;11.77;;
33954;SDS011;20233;50.804;7.126;2023-12-07T10:13:43;19.42;;;10.95;;
33954;SDS011;20233;50.804;7.126;2023-12-07T10:16:13;19.27;;;11.32;;
33954;SDS011;20233;50.804;7.126;2023-12-07T10:18:40;21.67;;;12.82;;
33954;SDS011;20233;50.804;7.126;2023-12-07T10:21:09;21.42;;;11.95;;
33954;SDS011;20233;50.804;7.126;2023-12-07T10:23:38;18.25;;;10.32;;
33954;SDS011;20233;50.804;7.126;2023-12-07T10:26:06;21.55;;;11.55;;
33954;SDS011;20233;50.804;7.126;2023-12-07T10:28:33;21.63;;;12.00;;
33954;SDS011;20233;50.804;7.126;2023-12-07T10:31:08;17.83;;;10.25;;
33954;SDS011;20233;50.804;7.126;2023-12-07T10:33:34;18.45;;;10.23;;
33954;SDS011;20233;50.804;7.126;2023-12-07T10:36:02;18.70;;;10.27;;
33954;SDS011;20233;50.804;7.126;2023-12-07T10:38:29;19.23;;;10.75;;
33954;SDS011;20233;50.804;7.126;2023-12-07T10:41:01;20.50;;;11.00;;
33954;SDS011;20233;50.804;7.126;2023-12-07T10:43:30;15.55;;;9.27;;
33954;SDS011;20233;50.804;7.126;2023-12-07T10:46:02;15.80;;;9.25;;
33954;SDS011;20233;50.804;7.126;2023-12-07T10:48:30;15.45;;;8.60;;
33954;SDS011;20233;50.804;7.126;2023-12-07T10:50:57;16.60;;;9.88;;
33954;SDS011;20233;50.804;7.126;2023-12-07T10:53:32;17.70;;;9.10;;
33954;SDS011;20233;50.804;7.126;2023-12-07T10:56:05;17.27;;;9.25;;
33954;SDS011;20233;50.804;7.126;2023-12-07T10:58:36;15.80;;;8.55;;
33954;SDS011;20233;50.804;7.126;2023-12-07T11:01:04;17.33;;;10.77;;
33954;SDS011;20233;50.804;7.126;2023-12-07T11:03:32;19.10;;;10.18;;
33954;SDS011;20233;50.804;7.126;2023-12-07T11:05:58;18.98;;;10.55;;
33954;SDS011;20233;50.804;7.126;2023-12-07T11:08:28;17.15;;;11.02;;
33954;SDS011;20233;50.804;7.126;2023-12-07T11:11:06;15.88;;;10.07;;
33954;SDS011;20233;50.804;7.126;2023-12-07T11:13:37;18.23;;;11.07;;
33954;SDS011;20233;50.804;7.126;2023-12-07T11:16:04;18.33;;;9.85;;
33954;SDS011;20233;50.804;7.126;2023-12-07T11:18:30;18.95;;;12.50;;
33954;SDS011;20233;50.804;7.126;2023-12-07T11:20:56;16.70;;;10.40;;
33954;SDS011;20233;50.804;7.126;2023-12-07T11:23:22;18.15;;;10.48;;
33954;SDS011;20233;50.804;7.126;2023-12-07T11:25:48;18.08;;;10.05;;
33954;SDS011;20233;50.804;7.126;2023-12-07T11:28:16;16.33;;;9.65;;
33954;SDS011;20233;50.804;7.126;2023-12-07T11:30:43;15.05;;;9.75;;
33954;SDS011;20233;50.804;7.126;2023-12-07T11:33:10;16.65;;;9.25;;
33954;SDS011;20233;50.804;7.126;2023-12-07T11:38:29;18.17;;;9.05;;
33954;SDS011;20233;50.804;7.126;2023-12-07T11:40:55;16.67;;;9.48;;
33954;SDS011;20233;50.804;7.126;2023-12-07T11:46:08;15.82;;;8.73;;
33954;SDS011;20233;50.804;7.126;2023-12-07T11:48:34;16.60;;;9.55;;
33954;SDS011;20233;50.804;7.126;2023-12-07T11:51:06;13.02;;;9.18;;
33954;SDS011;20233;50.804;7.126;2023-12-07T11:53:33;14.95;;;9.32;;
33954;SDS011;20233;50.804;7.126;2023-12-07T11:56:00;14.05;;;9.73;;
33954;SDS011;20233;50.804;7.126;2023-12-07T11:58:28;17.02;;;10.30;;
33954;SDS011;20233;50.804;7.126;2023-12-07T12:00:55;20.05;;;9.57;;
33954;SDS011;20233;50.804;7.126;2023-12-07T12:03:22;16.45;;;9.48;;
33954;SDS011;20233;50.804;7.126;2023-12-07T12:05:48;18.00;;;9.75;;
33954;SDS011;20233;50.804;7.126;2023-12-07T12:08:15;17.50;;;10.20;;
33954;SDS011;20233;50.804;7.126;2023-12-07T12:10:42;14.90;;;9.18;;
33954;SDS011;20233;50.804;7.126;2023-12-07T12:13:08;15.77;;;9.20;;
33954;SDS011;20233;50.804;7.126;2023-12-07T12:15:34;14.23;;;8.52;;
33954;SDS011;20233;50.804;7.126;2023-12-07T12:18:00;19.55;;;10.25;;
33954;SDS011;20233;50.804;7.126;2023-12-07T12:20:26;14.80;;;8.57;;
33954;SDS011;20233;50.804;7.126;2023-12-07T12:22:52;14.07;;;9.20;;
33954;SDS011;20233;50.804;7.126;2023-12-07T12:25:29;14.85;;;8.77;;
33954;SDS011;20233;50.804;7.126;2023-12-07T12:27:56;15.32;;;8.32;;
33954;SDS011;20233;50.804;7.126;2023-12-07T12:30:23;14.40;;;7.88;;
33954;SDS011;20233;50.804;7.126;2023-12-07T12:32:49;10.95;;;7.60;;
33954;SDS011;20233;50.804;7.126;2023-12-07T12:35:15;13.45;;;8.43;;
33954;SDS011;20233;50.804;7.126;2023-12-07T12:37:42;15.80;;;8.68;;
33954;SDS011;20233;50.804;7.126;2023-12-07T12:40:10;13.93;;;8.55;;
33954;SDS011;20233;50.804;7.126;2023-12-07T12:42:36;13.95;;;8.27;;
33954;SDS011;20233;50.804;7.126;2023-12-07T12:45:07;12.38;;;7.75;;
33954;SDS011;20233;50.804;7.126;2023-12-07T12:47:36;14.85;;;8.95;;
33954;SDS011;20233;50.804;7.126;2023-12-07T12:50:01;14.60;;;8.25;;
33954;SDS011;20233;50.804;7.126;2023-12-07T12:52:29;13.20;;;8.13;;
33954;SDS011;20233;50.804;7.126;2023-12-07T12:54:55;12.63;;;7.90;;
33954;SDS011;20233;50.804;7.126;2023-12-07T12:57:22;13.80;;;7.70;;
33954;SDS011;20233;50.804;7.126;2023-12-07T12:59:48;15.88;;;8.43;;
33954;SDS011;20233;50.804;7.126;2023-12-07T13:02:16;13.50;;;8.50;;
33954;SDS011;20233;50.804;7.126;2023-12-07T13:04:42;12.40;;;8.23;;
33954;SDS011;20233;50.804;7.126;2023-12-07T13:07:08;15.30;;;8.35;;
33954;SDS011;20233;50.804;7.126;2023-12-07T13:09:34;18.70;;;9.80;;
33954;SDS011;20233;50.804;7.126;2023-12-07T13:11:59;15.27;;;8.02;;
33954;SDS011;20233;50.804;7.126;2023-12-07T13:14:25;17.60;;;8.50;;
33954;SDS011;20233;50.804;7.126;2023-12-07T13:16:52;13.75;;;8.32;;
33954;SDS011;20233;50.804;7.126;2023-12-07T13:19:18;15.57;;;8.98;;
33954;SDS011;20233;50.804;7.126;2023-12-07T13:21:46;17.08;;;8.52;;
33954;SDS011;20233;50.804;7.126;2023-12-07T13:24:12;13.55;;;8.05;;
33954;SDS011;20233;50.804;7.126;2023-12-07T13:26:38;15.73;;;8.55;;
33954;SDS011;20233;50.804;7.126;2023-12-07T13:29:03;23.77;;;11.65;;
33954;SDS011;20233;50.804;7.126;2023-12-07T13:31:29;14.23;;;8.35;;
33954;SDS011;20233;50.804;7.126;2023-12-07T13:33:55;15.50;;;9.30;;
33954;SDS011;20233;50.804;7.126;2023-12-07T13:36:21;12.43;;;8.85;;
33954;SDS011;20233;50.804;7.126;2023-12-07T13:38:49;16.08;;;8.73;;
33954;SDS011;20233;50.804;7.126;2023-12-07T13:41:14;16.73;;;8.95;;
33954;SDS011;20233;50.804;7.126;2023-12-07T13:43:40;13.27;;;8.55;;
33954;SDS011;20233;50.804;7.126;2023-12-07T13:46:07;12.60;;;8.52;;
33954;SDS011;20233;50.804;7.126;2023-12-07T13:48:33;17.60;;;9.55;;
33954;SDS011;20233;50.804;7.126;2023-12-07T13:50:58;14.10;;;8.32;;
33954;SDS011;20233;50.804;7.126;2023-12-07T13:53:24;14.85;;;8.00;;
33954;SDS011;20233;50.804;7.126;2023-12-07T13:55:49;12.98;;;8.40;;
33954;SDS011;20233;50.804;7.126;2023-12-07T13:58:16;13.70;;;7.97;;
33954;SDS011;20233;50.804;7.126;2023-12-07T14:00:42;15.23;;;7.82;;
33954;SDS011;20233;50.804;7.126;2023-12-07T14:03:11;13.60;;;8.65;;
33954;SDS011;20233;50.804;7.126;2023-12-07T14:05:40;12.13;;;7.90;;
33954;SDS011;20233;50.804;7.126;2023-12-07T14:08:06;14.82;;;7.55;;
33954;SDS011;20233;50.804;7.126;2023-12-07T14:10:32;12.25;;;8.02;;
33954;SDS011;20233;50.804;7.126;2023-12-07T14:12:57;16.42;;;7.97;;
33954;SDS011;20233;50.804;7.126;2023-12-07T14:15:23;16.02;;;8.82;;
33954;SDS011;20233;50.804;7.126;2023-12-07T14:17:48;16.67;;;8.73;;
33954;SDS011;20233;50.804;7.126;2023-12-07T14:20:14;16.00;;;8.88;;
33954;SDS011;20233;50.804;7.126;2023-12-07T14:22:41;17.60;;;8.60;;
33954;SDS011;20233;50.804;7.126;2023-12-07T14:25:07;12.25;;;7.38;;
33954;SDS011;20233;50.804;7.126;2023-12-07T14:27:33;16.63;;;8.40;;